sensor_id;sensor_type;location;lat;lon;timestamp;temperature;humidity
17489;DHT22;8861;52.644;4.734;2022-12-08T00:00:08;5.50;99.90
17489;DHT22;8861;52.644;4.734;2022-12-08T00:02:35;5.50;99.90
17489;DHT22;8861;52.644;4.734;2022-12-08T00:05:02;5.50;99.90
17489;DHT22;8861;52.644;4.734;2022-12-08T00:07:46;5.50;99.90
17489;DHT22;8861;52.644;4.734;2022-12-08T00:10:30;5.50;99.90
17489;DHT22;8861;52.644;4.734;2022-12-08T00:12:59;5.50;99.90
17489;DHT22;8861;52.644;4.734;2022-12-08T00:15:26;5.50;99.90
17489;DHT22;8861;52.644;4.734;2022-12-08T00:17:53;5.50;99.90
17489;DHT22;8861;52.644;4.734;2022-12-08T00:20:20;5.40;99.90
17489;DHT22;8861;52.644;4.734;2022-12-08T00:22:46;5.30;99.90
17489;DHT22;8861;52.644;4.734;2022-12-08T00:25:13;5.30;99.90
17489;DHT22;8861;52.644;4.734;2022-12-08T00:27:40;5.20;99.90
17489;DHT22;8861;52.644;4.734;2022-12-08T00:30:09;5.20;99.90
17489;DHT22;8861;52.644;4.734;2022-12-08T00:32:37;5.20;99.90
17489;DHT22;8861;52.644;4.734;2022-12-08T00:35:04;5.10;99.90
17489;DHT22;8861;52.644;4.734;2022-12-08T00:37:31;5.10;99.90
17489;DHT22;8861;52.644;4.734;2022-12-08T00:39:58;5.10;99.90
17489;DHT22;8861;52.644;4.734;2022-12-08T00:42:25;5.20;99.90
17489;DHT22;8861;52.644;4.734;2022-12-08T00:44:52;5.20;99.90
17489;DHT22;8861;52.644;4.734;2022-12-08T00:47:20;5.20;99.90
17489;DHT22;8861;52.644;4.734;2022-12-08T00:49:47;5.20;99.90
17489;DHT22;8861;52.644;4.734;2022-12-08T00:52:14;5.20;99.90
17489;DHT22;8861;52.644;4.734;2022-12-08T00:54:41;5.20;99.90
17489;DHT22;8861;52.644;4.734;2022-12-08T00:57:08;5.20;99.90
17489;DHT22;8861;52.644;4.734;2022-12-08T00:59:36;5.10;99.90
17489;DHT22;8861;52.644;4.734;2022-12-08T01:02:03;5.10;99.90
17489;DHT22;8861;52.644;4.734;2022-12-08T01:04:31;5.10;99.90
17489;DHT22;8861;52.644;4.734;2022-12-08T01:06:58;5.10;99.90
17489;DHT22;8861;52.644;4.734;2022-12-08T01:09:25;5.10;99.90
17489;DHT22;8861;52.644;4.734;2022-12-08T01:11:52;5.00;99.90
17489;DHT22;8861;52.644;4.734;2022-12-08T01:14:19;5.00;99.90
17489;DHT22;8861;52.644;4.734;2022-12-08T01:16:46;5.10;99.90
17489;DHT22;8861;52.644;4.734;2022-12-08T01:19:15;5.10;99.90
17489;DHT22;8861;52.644;4.734;2022-12-08T01:21:44;5.20;99.90
17489;DHT22;8861;52.644;4.734;2022-12-08T01:24:12;5.30;99.90
17489;DHT22;8861;52.644;4.734;2022-12-08T01:26:40;5.40;99.90
17489;DHT22;8861;52.644;4.734;2022-12-08T01:29:07;5.40;99.90
17489;DHT22;8861;52.644;4.734;2022-12-08T01:31:34;5.50;99.90
17489;DHT22;8861;52.644;4.734;2022-12-08T01:34:02;5.50;99.90
17489;DHT22;8861;52.644;4.734;2022-12-08T01:36:30;5.50;99.90
17489;DHT22;8861;52.644;4.734;2022-12-08T01:39:00;5.50;99.90
17489;DHT22;8861;52.644;4.734;2022-12-08T01:41:30;5.50;99.90
17489;DHT22;8861;52.644;4.734;2022-12-08T01:44:00;5.40;99.90
17489;DHT22;8861;52.644;4.734;2022-12-08T01:46:29;5.40;99.90
17489;DHT22;8861;52.644;4.734;2022-12-08T01:49:00;5.40;99.90
17489;DHT22;8861;52.644;4.734;2022-12-08T01:51:31;5.30;99.90
17489;DHT22;8861;52.644;4.734;2022-12-08T01:54:02;5.30;99.90
17489;DHT22;8861;52.644;4.734;2022-12-08T01:56:35;5.30;99.90
17489;DHT22;8861;52.644;4.734;2022-12-08T01:59:03;5.20;99.90
17489;DHT22;8861;52.644;4.734;2022-12-08T02:01:32;5.20;99.90
17489;DHT22;8861;52.644;4.734;2022-12-08T02:04:00;5.30;99.90
17489;DHT22;8861;52.644;4.734;2022-12-08T02:06:31;5.30;99.90
17489;DHT22;8861;52.644;4.734;2022-12-08T02:09:01;5.30;99.90
17489;DHT22;8861;52.644;4.734;2022-12-08T02:11:29;5.20;99.90
17489;DHT22;8861;52.644;4.734;2022-12-08T02:13:56;5.00;99.90
17489;DHT22;8861;52.644;4.734;2022-12-08T02:16:34;4.90;99.90
17489;DHT22;8861;52.644;4.734;2022-12-08T02:19:22;4.90;99.90
17489;DHT22;8861;52.644;4.734;2022-12-08T02:21:58;4.80;99.90
17489;DHT22;8861;52.644;4.734;2022-12-08T02:24:33;4.80;99.90
17489;DHT22;8861;52.644;4.734;2022-12-08T02:27:32;4.80;99.90
17489;DHT22;8861;52.644;4.734;2022-12-08T02:30:11;4.70;99.90
17489;DHT22;8861;52.644;4.734;2022-12-08T02:33:20;4.70;99.90
17489;DHT22;8861;52.644;4.734;2022-12-08T02:35:57;4.70;99.90
17489;DHT22;8861;52.644;4.734;2022-12-08T02:38:34;4.70;99.90
17489;DHT22;8861;52.644;4.734;2022-12-08T02:41:15;4.60;99.90
17489;DHT22;8861;52.644;4.734;2022-12-08T02:43:46;4.60;99.90
17489;DHT22;8861;52.644;4.734;2022-12-08T02:46:16;4.60;99.90
17489;DHT22;8861;52.644;4.734;2022-12-08T02:48:46;4.50;99.90
17489;DHT22;8861;52.644;4.734;2022-12-08T02:51:15;4.50;99.90
17489;DHT22;8861;52.644;4.734;2022-12-08T02:53:42;4.50;99.90
17489;DHT22;8861;52.644;4.734;2022-12-08T02:56:16;4.50;99.90
17489;DHT22;8861;52.644;4.734;2022-12-08T02:59:09;4.60;99.90
17489;DHT22;8861;52.644;4.734;2022-12-08T03:01:50;4.60;99.90
17489;DHT22;8861;52.644;4.734;2022-12-08T03:04:28;4.60;99.90
17489;DHT22;8861;52.644;4.734;2022-12-08T03:07:04;4.60;99.90
17489;DHT22;8861;52.644;4.734;2022-12-08T03:09:35;4.60;99.90
17489;DHT22;8861;52.644;4.734;2022-12-08T03:12:12;4.70;99.90
17489;DHT22;8861;52.644;4.734;2022-12-08T03:14:45;4.70;99.90
17489;DHT22;8861;52.644;4.734;2022-12-08T03:17:15;4.70;99.90
17489;DHT22;8861;52.644;4.734;2022-12-08T03:19:45;4.80;99.90
17489;DHT22;8861;52.644;4.734;2022-12-08T03:22:17;4.70;99.90
17489;DHT22;8861;52.644;4.734;2022-12-08T03:24:46;4.70;99.90
17489;DHT22;8861;52.644;4.734;2022-12-08T03:27:14;4.70;99.90
17489;DHT22;8861;52.644;4.734;2022-12-08T03:29:44;4.70;99.90
17489;DHT22;8861;52.644;4.734;2022-12-08T03:32:18;4.80;99.90
17489;DHT22;8861;52.644;4.734;2022-12-08T03:34:49;4.70;99.90
17489;DHT22;8861;52.644;4.734;2022-12-08T03:37:19;4.70;99.90
17489;DHT22;8861;52.644;4.734;2022-12-08T03:39:46;4.70;99.90
17489;DHT22;8861;52.644;4.734;2022-12-08T03:42:13;4.60;99.90
17489;DHT22;8861;52.644;4.734;2022-12-08T03:44:40;4.50;99.90
17489;DHT22;8861;52.644;4.734;2022-12-08T03:47:07;4.50;99.90
17489;DHT22;8861;52.644;4.734;2022-12-08T03:49:34;4.50;99.90
17489;DHT22;8861;52.644;4.734;2022-12-08T03:52:01;4.40;99.90
17489;DHT22;8861;52.644;4.734;2022-12-08T03:54:30;4.40;99.90
17489;DHT22;8861;52.644;4.734;2022-12-08T03:56:56;4.30;99.90
17489;DHT22;8861;52.644;4.734;2022-12-08T03:59:23;4.30;99.90
17489;DHT22;8861;52.644;4.734;2022-12-08T04:01:50;4.30;99.90
17489;DHT22;8861;52.644;4.734;2022-12-08T04:04:17;4.30;99.90
17489;DHT22;8861;52.644;4.734;2022-12-08T04:06:44;4.30;99.90
17489;DHT22;8861;52.644;4.734;2022-12-08T04:09:11;4.40;99.90
17489;DHT22;8861;52.644;4.734;2022-12-08T04:11:40;4.40;99.90
17489;DHT22;8861;52.644;4.734;2022-12-08T04:14:07;4.40;99.90
17489;DHT22;8861;52.644;4.734;2022-12-08T04:16:34;4.40;99.90
17489;DHT22;8861;52.644;4.734;2022-12-08T04:19:01;4.40;99.90
17489;DHT22;8861;52.644;4.734;2022-12-08T04:21:28;4.40;99.90
17489;DHT22;8861;52.644;4.734;2022-12-08T04:23:55;4.40;99.90
17489;DHT22;8861;52.644;4.734;2022-12-08T04:26:22;4.50;99.90
17489;DHT22;8861;52.644;4.734;2022-12-08T04:28:51;4.50;99.90
17489;DHT22;8861;52.644;4.734;2022-12-08T04:31:18;4.50;99.90
17489;DHT22;8861;52.644;4.734;2022-12-08T04:33:45;4.50;99.90
17489;DHT22;8861;52.644;4.734;2022-12-08T04:36:13;4.50;99.90
17489;DHT22;8861;52.644;4.734;2022-12-08T04:38:40;4.50;99.90
17489;DHT22;8861;52.644;4.734;2022-12-08T04:41:07;4.50;99.90
17489;DHT22;8861;52.644;4.734;2022-12-08T04:43:34;4.50;99.90
17489;DHT22;8861;52.644;4.734;2022-12-08T04:46:06;4.50;99.90
17489;DHT22;8861;52.644;4.734;2022-12-08T04:48:33;4.50;99.90
17489;DHT22;8861;52.644;4.734;2022-12-08T04:51:02;4.60;99.90
17489;DHT22;8861;52.644;4.734;2022-12-08T04:53:29;4.50;99.90
17489;DHT22;8861;52.644;4.734;2022-12-08T04:55:56;4.50;99.90
17489;DHT22;8861;52.644;4.734;2022-12-08T04:58:23;4.50;99.90
17489;DHT22;8861;52.644;4.734;2022-12-08T05:00:50;4.50;99.90
17489;DHT22;8861;52.644;4.734;2022-12-08T05:03:18;4.50;99.90
17489;DHT22;8861;52.644;4.734;2022-12-08T05:05:45;4.50;99.90
17489;DHT22;8861;52.644;4.734;2022-12-08T05:08:12;4.40;99.90
17489;DHT22;8861;52.644;4.734;2022-12-08T05:10:39;4.40;99.90
17489;DHT22;8861;52.644;4.734;2022-12-08T05:13:06;4.40;99.90
17489;DHT22;8861;52.644;4.734;2022-12-08T05:15:33;4.30;99.90
17489;DHT22;8861;52.644;4.734;2022-12-08T05:18:00;4.40;99.90
17489;DHT22;8861;52.644;4.734;2022-12-08T05:20:28;4.40;99.90
17489;DHT22;8861;52.644;4.734;2022-12-08T05:22:55;4.40;99.90
17489;DHT22;8861;52.644;4.734;2022-12-08T05:25:22;4.40;99.90
17489;DHT22;8861;52.644;4.734;2022-12-08T05:27:49;4.40;99.90
17489;DHT22;8861;52.644;4.734;2022-12-08T05:30:16;4.40;99.90
17489;DHT22;8861;52.644;4.734;2022-12-08T05:32:43;4.30;99.90
17489;DHT22;8861;52.644;4.734;2022-12-08T05:35:10;4.30;99.90
17489;DHT22;8861;52.644;4.734;2022-12-08T05:37:38;4.30;99.90
17489;DHT22;8861;52.644;4.734;2022-12-08T05:40:06;4.30;99.90
17489;DHT22;8861;52.644;4.734;2022-12-08T05:42:33;4.30;99.90
17489;DHT22;8861;52.644;4.734;2022-12-08T05:45:00;4.20;99.90
17489;DHT22;8861;52.644;4.734;2022-12-08T05:47:27;4.20;99.90
17489;DHT22;8861;52.644;4.734;2022-12-08T05:49:54;4.20;99.90
17489;DHT22;8861;52.644;4.734;2022-12-08T05:52:21;4.20;99.90
17489;DHT22;8861;52.644;4.734;2022-12-08T05:54:49;4.20;99.90
17489;DHT22;8861;52.644;4.734;2022-12-08T05:57:16;4.20;99.90
17489;DHT22;8861;52.644;4.734;2022-12-08T05:59:43;4.20;99.90
17489;DHT22;8861;52.644;4.734;2022-12-08T06:02:10;4.30;99.90
17489;DHT22;8861;52.644;4.734;2022-12-08T06:04:37;4.30;99.90
17489;DHT22;8861;52.644;4.734;2022-12-08T06:07:04;4.30;99.90
17489;DHT22;8861;52.644;4.734;2022-12-08T06:09:31;4.40;99.90
17489;DHT22;8861;52.644;4.734;2022-12-08T06:12:00;4.40;99.90
17489;DHT22;8861;52.644;4.734;2022-12-08T06:14:27;4.40;99.90
17489;DHT22;8861;52.644;4.734;2022-12-08T06:16:54;4.40;99.90
17489;DHT22;8861;52.644;4.734;2022-12-08T06:19:21;4.40;99.90
17489;DHT22;8861;52.644;4.734;2022-12-08T06:21:48;4.40;99.90
17489;DHT22;8861;52.644;4.734;2022-12-08T06:24:15;4.30;99.90
17489;DHT22;8861;52.644;4.734;2022-12-08T06:26:41;4.30;99.90
17489;DHT22;8861;52.644;4.734;2022-12-08T06:29:10;4.30;99.90
17489;DHT22;8861;52.644;4.734;2022-12-08T06:31:37;4.30;99.90
17489;DHT22;8861;52.644;4.734;2022-12-08T06:34:04;4.30;99.90
17489;DHT22;8861;52.644;4.734;2022-12-08T06:36:31;4.30;99.90
17489;DHT22;8861;52.644;4.734;2022-12-08T06:38:59;4.30;99.90
17489;DHT22;8861;52.644;4.734;2022-12-08T06:41:26;4.30;99.90
17489;DHT22;8861;52.644;4.734;2022-12-08T06:43:55;4.30;99.90
17489;DHT22;8861;52.644;4.734;2022-12-08T06:46:23;4.30;99.90
17489;DHT22;8861;52.644;4.734;2022-12-08T06:48:50;4.30;99.90
17489;DHT22;8861;52.644;4.734;2022-12-08T06:51:18;4.30;99.90
17489;DHT22;8861;52.644;4.734;2022-12-08T06:53:45;4.30;99.90
17489;DHT22;8861;52.644;4.734;2022-12-08T06:56:13;4.30;99.90
17489;DHT22;8861;52.644;4.734;2022-12-08T06:58:41;4.30;99.90
17489;DHT22;8861;52.644;4.734;2022-12-08T07:01:10;4.20;99.90
17489;DHT22;8861;52.644;4.734;2022-12-08T07:03:40;4.20;99.90
17489;DHT22;8861;52.644;4.734;2022-12-08T07:06:13;4.20;99.90
17489;DHT22;8861;52.644;4.734;2022-12-08T07:08:40;4.20;99.90
17489;DHT22;8861;52.644;4.734;2022-12-08T07:11:08;4.30;99.90
17489;DHT22;8861;52.644;4.734;2022-12-08T07:13:35;4.30;99.90
17489;DHT22;8861;52.644;4.734;2022-12-08T07:16:04;4.30;99.90
17489;DHT22;8861;52.644;4.734;2022-12-08T07:18:31;4.20;99.90
17489;DHT22;8861;52.644;4.734;2022-12-08T07:21:03;4.30;99.90
17489;DHT22;8861;52.644;4.734;2022-12-08T07:23:30;4.20;99.90
17489;DHT22;8861;52.644;4.734;2022-12-08T07:25:59;4.20;99.90
17489;DHT22;8861;52.644;4.734;2022-12-08T07:28:28;4.20;99.90
17489;DHT22;8861;52.644;4.734;2022-12-08T07:30:55;4.10;99.90
17489;DHT22;8861;52.644;4.734;2022-12-08T07:33:22;4.10;99.90
17489;DHT22;8861;52.644;4.734;2022-12-08T07:35:53;4.10;99.90
17489;DHT22;8861;52.644;4.734;2022-12-08T07:38:22;4.10;99.90
17489;DHT22;8861;52.644;4.734;2022-12-08T07:40:49;4.10;99.90
17489;DHT22;8861;52.644;4.734;2022-12-08T07:43:17;4.20;99.90
17489;DHT22;8861;52.644;4.734;2022-12-08T07:45:44;4.20;99.90
17489;DHT22;8861;52.644;4.734;2022-12-08T07:48:11;4.20;99.90
17489;DHT22;8861;52.644;4.734;2022-12-08T07:50:38;4.20;99.90
17489;DHT22;8861;52.644;4.734;2022-12-08T07:53:05;4.30;99.90
17489;DHT22;8861;52.644;4.734;2022-12-08T07:55:38;4.30;99.90
17489;DHT22;8861;52.644;4.734;2022-12-08T07:58:05;4.30;99.90
17489;DHT22;8861;52.644;4.734;2022-12-08T08:00:31;4.40;99.90
17489;DHT22;8861;52.644;4.734;2022-12-08T08:03:00;4.40;99.90
17489;DHT22;8861;52.644;4.734;2022-12-08T08:05:27;4.30;99.90
17489;DHT22;8861;52.644;4.734;2022-12-08T08:07:54;4.30;99.90
17489;DHT22;8861;52.644;4.734;2022-12-08T08:10:21;4.30;99.90
17489;DHT22;8861;52.644;4.734;2022-12-08T08:12:50;4.20;99.90
17489;DHT22;8861;52.644;4.734;2022-12-08T08:15:17;4.20;99.90
17489;DHT22;8861;52.644;4.734;2022-12-08T08:17:48;4.20;99.90
17489;DHT22;8861;52.644;4.734;2022-12-08T08:20:15;4.20;99.90
17489;DHT22;8861;52.644;4.734;2022-12-08T08:22:42;4.20;99.90
17489;DHT22;8861;52.644;4.734;2022-12-08T08:25:10;4.20;99.90
17489;DHT22;8861;52.644;4.734;2022-12-08T08:27:37;4.20;99.90
17489;DHT22;8861;52.644;4.734;2022-12-08T08:30:07;4.30;99.90
17489;DHT22;8861;52.644;4.734;2022-12-08T08:32:35;4.30;99.90
17489;DHT22;8861;52.644;4.734;2022-12-08T08:35:03;4.30;99.90
17489;DHT22;8861;52.644;4.734;2022-12-08T08:37:30;4.30;99.90
17489;DHT22;8861;52.644;4.734;2022-12-08T08:39:57;4.30;99.90
17489;DHT22;8861;52.644;4.734;2022-12-08T08:42:24;4.30;99.90
17489;DHT22;8861;52.644;4.734;2022-12-08T08:44:51;4.30;99.90
17489;DHT22;8861;52.644;4.734;2022-12-08T08:47:20;4.30;99.90
17489;DHT22;8861;52.644;4.734;2022-12-08T08:49:47;4.20;99.90
17489;DHT22;8861;52.644;4.734;2022-12-08T08:52:14;4.20;99.90
17489;DHT22;8861;52.644;4.734;2022-12-08T08:54:40;4.20;99.90
17489;DHT22;8861;52.644;4.734;2022-12-08T08:57:08;4.20;99.90
17489;DHT22;8861;52.644;4.734;2022-12-08T08:59:34;4.20;99.90
17489;DHT22;8861;52.644;4.734;2022-12-08T09:02:01;4.20;99.90
17489;DHT22;8861;52.644;4.734;2022-12-08T09:04:30;4.20;99.90
17489;DHT22;8861;52.644;4.734;2022-12-08T09:06:57;4.20;99.90
17489;DHT22;8861;52.644;4.734;2022-12-08T09:09:24;4.20;99.90
17489;DHT22;8861;52.644;4.734;2022-12-08T09:11:50;4.20;99.90
17489;DHT22;8861;52.644;4.734;2022-12-08T09:14:19;4.20;99.90
17489;DHT22;8861;52.644;4.734;2022-12-08T09:16:47;4.20;99.90
17489;DHT22;8861;52.644;4.734;2022-12-08T09:19:14;4.30;99.90
17489;DHT22;8861;52.644;4.734;2022-12-08T09:21:43;4.30;99.90
17489;DHT22;8861;52.644;4.734;2022-12-08T09:24:09;4.40;99.90
17489;DHT22;8861;52.644;4.734;2022-12-08T09:26:40;4.50;99.90
17489;DHT22;8861;52.644;4.734;2022-12-08T09:29:08;4.50;99.90
17489;DHT22;8861;52.644;4.734;2022-12-08T09:31:35;4.50;99.90
17489;DHT22;8861;52.644;4.734;2022-12-08T09:34:03;4.60;99.90
17489;DHT22;8861;52.644;4.734;2022-12-08T09:36:31;4.60;99.90
17489;DHT22;8861;52.644;4.734;2022-12-08T09:38:59;4.60;99.90
17489;DHT22;8861;52.644;4.734;2022-12-08T09:41:31;4.60;99.90
17489;DHT22;8861;52.644;4.734;2022-12-08T09:44:08;4.60;99.90
17489;DHT22;8861;52.644;4.734;2022-12-08T09:46:42;4.50;99.90
17489;DHT22;8861;52.644;4.734;2022-12-08T09:49:13;4.50;99.90
17489;DHT22;8861;52.644;4.734;2022-12-08T09:51:43;4.40;99.90
17489;DHT22;8861;52.644;4.734;2022-12-08T09:54:16;4.40;99.90
17489;DHT22;8861;52.644;4.734;2022-12-08T09:56:44;4.50;99.90
17489;DHT22;8861;52.644;4.734;2022-12-08T09:59:21;4.50;99.90
17489;DHT22;8861;52.644;4.734;2022-12-08T10:01:49;4.50;99.90
17489;DHT22;8861;52.644;4.734;2022-12-08T10:04:22;4.50;99.90
17489;DHT22;8861;52.644;4.734;2022-12-08T10:06:58;4.50;99.90
17489;DHT22;8861;52.644;4.734;2022-12-08T10:09:35;4.40;99.90
17489;DHT22;8861;52.644;4.734;2022-12-08T10:12:10;4.40;99.90
17489;DHT22;8861;52.644;4.734;2022-12-08T10:14:42;4.40;99.90
17489;DHT22;8861;52.644;4.734;2022-12-08T10:17:15;4.40;99.90
17489;DHT22;8861;52.644;4.734;2022-12-08T10:19:43;4.40;99.90
17489;DHT22;8861;52.644;4.734;2022-12-08T10:22:16;4.30;99.90
17489;DHT22;8861;52.644;4.734;2022-12-08T10:24:51;4.40;99.90
17489;DHT22;8861;52.644;4.734;2022-12-08T10:27:20;4.50;99.90
17489;DHT22;8861;52.644;4.734;2022-12-08T10:29:47;4.50;99.90
17489;DHT22;8861;52.644;4.734;2022-12-08T10:32:17;4.60;99.90
17489;DHT22;8861;52.644;4.734;2022-12-08T10:35:03;4.60;99.90
17489;DHT22;8861;52.644;4.734;2022-12-08T10:37:30;4.70;99.90
17489;DHT22;8861;52.644;4.734;2022-12-08T10:40:07;4.80;99.90
17489;DHT22;8861;52.644;4.734;2022-12-08T10:42:38;4.90;99.90
17489;DHT22;8861;52.644;4.734;2022-12-08T10:45:21;4.90;99.90
17489;DHT22;8861;52.644;4.734;2022-12-08T10:47:58;4.80;99.90
17489;DHT22;8861;52.644;4.734;2022-12-08T10:50:34;4.70;99.90
17489;DHT22;8861;52.644;4.734;2022-12-08T10:53:10;4.60;99.90
17489;DHT22;8861;52.644;4.734;2022-12-08T10:55:42;4.50;99.90
17489;DHT22;8861;52.644;4.734;2022-12-08T10:58:29;4.30;99.90
17489;DHT22;8861;52.644;4.734;2022-12-08T11:01:00;4.20;99.90
17489;DHT22;8861;52.644;4.734;2022-12-08T11:03:29;4.10;99.90
17489;DHT22;8861;52.644;4.734;2022-12-08T11:05:58;4.10;99.90
17489;DHT22;8861;52.644;4.734;2022-12-08T11:08:26;4.00;99.90
17489;DHT22;8861;52.644;4.734;2022-12-08T11:10:55;4.00;99.90
17489;DHT22;8861;52.644;4.734;2022-12-08T11:13:23;4.00;99.90
17489;DHT22;8861;52.644;4.734;2022-12-08T11:15:52;4.00;99.90
17489;DHT22;8861;52.644;4.734;2022-12-08T11:18:26;4.10;99.90
17489;DHT22;8861;52.644;4.734;2022-12-08T11:20:59;4.20;99.90
17489;DHT22;8861;52.644;4.734;2022-12-08T11:23:28;4.40;99.90
17489;DHT22;8861;52.644;4.734;2022-12-08T11:26:00;4.70;99.90
17489;DHT22;8861;52.644;4.734;2022-12-08T11:28:28;5.00;99.90
17489;DHT22;8861;52.644;4.734;2022-12-08T11:31:01;5.30;99.90
17489;DHT22;8861;52.644;4.734;2022-12-08T11:33:29;5.60;99.90
17489;DHT22;8861;52.644;4.734;2022-12-08T11:36:01;5.80;99.90
17489;DHT22;8861;52.644;4.734;2022-12-08T11:38:29;5.90;99.90
17489;DHT22;8861;52.644;4.734;2022-12-08T11:41:03;5.90;99.90
17489;DHT22;8861;52.644;4.734;2022-12-08T11:43:39;5.90;99.90
17489;DHT22;8861;52.644;4.734;2022-12-08T11:46:13;5.90;99.90
17489;DHT22;8861;52.644;4.734;2022-12-08T11:48:45;5.80;99.90
17489;DHT22;8861;52.644;4.734;2022-12-08T11:51:16;5.60;99.90
17489;DHT22;8861;52.644;4.734;2022-12-08T11:53:55;5.50;99.90
17489;DHT22;8861;52.644;4.734;2022-12-08T11:56:32;5.30;99.90
17489;DHT22;8861;52.644;4.734;2022-12-08T11:59:01;5.20;99.90
17489;DHT22;8861;52.644;4.734;2022-12-08T12:01:34;5.10;99.90
17489;DHT22;8861;52.644;4.734;2022-12-08T12:04:12;5.00;99.90
17489;DHT22;8861;52.644;4.734;2022-12-08T12:07:14;4.90;99.90
17489;DHT22;8861;52.644;4.734;2022-12-08T12:09:55;4.90;99.90
17489;DHT22;8861;52.644;4.734;2022-12-08T12:12:34;4.90;99.90
17489;DHT22;8861;52.644;4.734;2022-12-08T12:15:37;5.00;99.90
17489;DHT22;8861;52.644;4.734;2022-12-08T12:18:10;5.10;99.90
17489;DHT22;8861;52.644;4.734;2022-12-08T12:20:46;5.40;99.90
17489;DHT22;8861;52.644;4.734;2022-12-08T12:23:18;5.60;99.90
17489;DHT22;8861;52.644;4.734;2022-12-08T12:25:52;5.90;99.90
17489;DHT22;8861;52.644;4.734;2022-12-08T12:28:23;6.10;99.90
17489;DHT22;8861;52.644;4.734;2022-12-08T12:30:55;6.10;99.90
17489;DHT22;8861;52.644;4.734;2022-12-08T12:33:24;5.90;99.90
17489;DHT22;8861;52.644;4.734;2022-12-08T12:35:55;5.80;99.90
17489;DHT22;8861;52.644;4.734;2022-12-08T12:38:25;5.70;99.90
17489;DHT22;8861;52.644;4.734;2022-12-08T12:41:09;5.50;99.90
17489;DHT22;8861;52.644;4.734;2022-12-08T12:43:39;5.30;99.90
17489;DHT22;8861;52.644;4.734;2022-12-08T12:46:41;5.20;99.90
17489;DHT22;8861;52.644;4.734;2022-12-08T12:52:42;5.10;99.90
17489;DHT22;8861;52.644;4.734;2022-12-08T12:55:26;5.10;99.90
17489;DHT22;8861;52.644;4.734;2022-12-08T12:57:54;5.20;99.90
17489;DHT22;8861;52.644;4.734;2022-12-08T13:00:24;5.30;99.90
17489;DHT22;8861;52.644;4.734;2022-12-08T13:02:54;5.40;99.90
17489;DHT22;8861;52.644;4.734;2022-12-08T13:05:24;5.60;99.90
17489;DHT22;8861;52.644;4.734;2022-12-08T13:07:53;5.60;99.90
17489;DHT22;8861;52.644;4.734;2022-12-08T13:10:24;5.60;99.90
17489;DHT22;8861;52.644;4.734;2022-12-08T13:13:04;5.60;99.90
17489;DHT22;8861;52.644;4.734;2022-12-08T13:15:35;5.50;99.90
17489;DHT22;8861;52.644;4.734;2022-12-08T13:18:04;5.50;99.90
17489;DHT22;8861;52.644;4.734;2022-12-08T13:20:40;5.40;99.90
17489;DHT22;8861;52.644;4.734;2022-12-08T13:23:24;5.10;99.90
17489;DHT22;8861;52.644;4.734;2022-12-08T13:26:07;5.00;99.90
17489;DHT22;8861;52.644;4.734;2022-12-08T13:29:12;4.90;99.90
17489;DHT22;8861;52.644;4.734;2022-12-08T13:31:42;4.70;99.90
17489;DHT22;8861;52.644;4.734;2022-12-08T13:34:14;4.50;99.90
17489;DHT22;8861;52.644;4.734;2022-12-08T13:36:49;4.30;99.90
17489;DHT22;8861;52.644;4.734;2022-12-08T13:39:22;4.20;99.90
17489;DHT22;8861;52.644;4.734;2022-12-08T13:41:56;4.10;99.90
17489;DHT22;8861;52.644;4.734;2022-12-08T13:44:30;4.00;99.90
17489;DHT22;8861;52.644;4.734;2022-12-08T13:47:01;3.90;99.90
17489;DHT22;8861;52.644;4.734;2022-12-08T13:49:34;3.90;99.90
17489;DHT22;8861;52.644;4.734;2022-12-08T13:52:02;4.00;99.90
17489;DHT22;8861;52.644;4.734;2022-12-08T13:54:33;4.00;99.90
17489;DHT22;8861;52.644;4.734;2022-12-08T13:57:04;4.00;99.90
17489;DHT22;8861;52.644;4.734;2022-12-08T13:59:33;4.00;99.90
17489;DHT22;8861;52.644;4.734;2022-12-08T14:02:03;4.00;99.90
17489;DHT22;8861;52.644;4.734;2022-12-08T14:04:31;4.00;99.90
17489;DHT22;8861;52.644;4.734;2022-12-08T14:07:00;4.00;99.90
17489;DHT22;8861;52.644;4.734;2022-12-08T14:09:32;3.90;99.90
17489;DHT22;8861;52.644;4.734;2022-12-08T14:12:03;4.00;99.90
17489;DHT22;8861;52.644;4.734;2022-12-08T14:14:32;4.00;99.90
17489;DHT22;8861;52.644;4.734;2022-12-08T14:17:03;4.10;99.90
17489;DHT22;8861;52.644;4.734;2022-12-08T14:19:33;4.10;99.90
17489;DHT22;8861;52.644;4.734;2022-12-08T14:22:02;4.20;99.90
17489;DHT22;8861;52.644;4.734;2022-12-08T14:24:31;4.30;99.90
17489;DHT22;8861;52.644;4.734;2022-12-08T14:26:59;4.30;99.90
17489;DHT22;8861;52.644;4.734;2022-12-08T14:29:41;4.40;99.90
17489;DHT22;8861;52.644;4.734;2022-12-08T14:32:22;4.40;99.90
17489;DHT22;8861;52.644;4.734;2022-12-08T14:34:54;4.40;99.90
17489;DHT22;8861;52.644;4.734;2022-12-08T14:37:23;4.50;99.90
17489;DHT22;8861;52.644;4.734;2022-12-08T14:39:51;4.50;99.90
17489;DHT22;8861;52.644;4.734;2022-12-08T14:42:21;4.50;99.90
17489;DHT22;8861;52.644;4.734;2022-12-08T14:44:55;4.50;99.90
17489;DHT22;8861;52.644;4.734;2022-12-08T14:47:28;4.50;99.90
17489;DHT22;8861;52.644;4.734;2022-12-08T14:49:55;4.50;99.90
17489;DHT22;8861;52.644;4.734;2022-12-08T14:52:22;4.60;99.90
17489;DHT22;8861;52.644;4.734;2022-12-08T14:54:50;4.60;99.90
17489;DHT22;8861;52.644;4.734;2022-12-08T14:57:18;4.60;99.90
17489;DHT22;8861;52.644;4.734;2022-12-08T14:59:46;4.60;99.90
17489;DHT22;8861;52.644;4.734;2022-12-08T15:02:25;4.60;99.90
17489;DHT22;8861;52.644;4.734;2022-12-08T15:04:59;4.50;99.90
17489;DHT22;8861;52.644;4.734;2022-12-08T15:07:28;4.50;99.90
17489;DHT22;8861;52.644;4.734;2022-12-08T15:10:08;4.50;99.90
17489;DHT22;8861;52.644;4.734;2022-12-08T15:12:36;4.50;99.90
17489;DHT22;8861;52.644;4.734;2022-12-08T15:15:15;4.50;99.90
17489;DHT22;8861;52.644;4.734;2022-12-08T15:17:48;4.50;99.90
17489;DHT22;8861;52.644;4.734;2022-12-08T15:20:29;4.40;99.90
17489;DHT22;8861;52.644;4.734;2022-12-08T15:22:58;4.40;99.90
17489;DHT22;8861;52.644;4.734;2022-12-08T15:25:25;4.40;99.90
17489;DHT22;8861;52.644;4.734;2022-12-08T15:27:51;4.30;99.90
17489;DHT22;8861;52.644;4.734;2022-12-08T15:30:19;4.30;99.90
17489;DHT22;8861;52.644;4.734;2022-12-08T15:32:47;4.30;99.90
17489;DHT22;8861;52.644;4.734;2022-12-08T15:35:17;4.20;99.90
17489;DHT22;8861;52.644;4.734;2022-12-08T15:37:44;4.20;99.90
17489;DHT22;8861;52.644;4.734;2022-12-08T15:40:16;4.20;99.90
17489;DHT22;8861;52.644;4.734;2022-12-08T15:42:43;4.10;99.90
17489;DHT22;8861;52.644;4.734;2022-12-08T15:45:11;4.00;99.90
17489;DHT22;8861;52.644;4.734;2022-12-08T15:47:39;4.00;99.90
17489;DHT22;8861;52.644;4.734;2022-12-08T15:50:14;3.90;99.90
17489;DHT22;8861;52.644;4.734;2022-12-08T15:52:41;3.80;99.90
17489;DHT22;8861;52.644;4.734;2022-12-08T15:55:11;3.70;99.90
17489;DHT22;8861;52.644;4.734;2022-12-08T15:57:39;3.60;99.90
17489;DHT22;8861;52.644;4.734;2022-12-08T16:00:23;3.50;99.90
17489;DHT22;8861;52.644;4.734;2022-12-08T16:02:50;3.40;99.90
17489;DHT22;8861;52.644;4.734;2022-12-08T16:05:19;3.30;99.90
17489;DHT22;8861;52.644;4.734;2022-12-08T16:07:46;3.20;99.90
17489;DHT22;8861;52.644;4.734;2022-12-08T16:10:15;3.20;99.90
17489;DHT22;8861;52.644;4.734;2022-12-08T16:12:43;3.10;99.90
17489;DHT22;8861;52.644;4.734;2022-12-08T16:15:28;3.10;99.90
17489;DHT22;8861;52.644;4.734;2022-12-08T16:17:56;3.00;99.90
17489;DHT22;8861;52.644;4.734;2022-12-08T16:20:25;3.00;99.90
17489;DHT22;8861;52.644;4.734;2022-12-08T16:22:52;3.00;99.90
17489;DHT22;8861;52.644;4.734;2022-12-08T16:25:19;3.00;99.90